Wetterdaten: Freitag, 25.05.2012
Datum Zeit Temperatur Luftfeuchte Regen Wind Richtung Richtung Taupunkt Windchill Windben
25.05.2012 00:00 13,6 C 76 % 0,0 l/m 0,2 km/h (0 Bft) N-NO 22 9,4 C 12,8 C 0,0 km/h (0 Bft)
25.05.2012 00:05 13,2 C 75 % 0,0 l/m 0,3 km/h (0 Bft) NW 315 8,9 C 12,9 C 2,3 km/h (1 Bft)
25.05.2012 00:10 13,3 C 74 % 0,0 l/m 0,8 km/h (0 Bft) N-NW 337 8,8 C 12,9 C 0,0 km/h (0 Bft)
25.05.2012 00:15 13,0 C 74 % 0,0 l/m 1,0 km/h (0 Bft) N-NW 337 8,5 C 12,9 C 0,0 km/h (0 Bft)
25.05.2012 00:20 13,5 C 73 % 0,0 l/m 0,8 km/h (0 Bft) N 360 8,8 C 12,9 C 2,4 km/h (1 Bft)
25.05.2012 00:25 13,5 C 73 % 0,0 l/m 0,8 km/h (0 Bft) N-NW 337 8,8 C 13,0 C 2,1 km/h (1 Bft)
25.05.2012 00:30 12,8 C 75 % 0,0 l/m 0,8 km/h (0 Bft) N 360 8,5 C 13,0 C 3,7 km/h (1 Bft)
25.05.2012 00:35 12,3 C 75 % 0,0 l/m 0,6 km/h (0 Bft) N-NO 22 8,0 C 12,8 C 1,6 km/h (1 Bft)
25.05.2012 00:40 12,9 C 75 % 0,0 l/m 0,2 km/h (0 Bft) N 360 8,6 C 12,4 C 0,0 km/h (0 Bft)
25.05.2012 00:45 13,3 C 73 % 0,0 l/m 0,2 km/h (0 Bft) NO 45 8,6 C 12,4 C 1,9 km/h (1 Bft)
25.05.2012 00:50 13,4 C 71 % 0,0 l/m 0,3 km/h (0 Bft) NO 45 8,3 C 12,5 C 0,0 km/h (0 Bft)
25.05.2012 00:55 12,8 C 73 % 0,0 l/m 0,3 km/h (0 Bft) S 180 8,1 C 12,4 C 0,0 km/h (0 Bft)
25.05.2012 01:00 11,7 C 75 % 0,0 l/m 0,0 km/h (0 Bft) N-NO 22 7,4 C 11,7 C 0,0 km/h (0 Bft)
25.05.2012 01:05 11,4 C 77 % 0,0 l/m 0,0 km/h (0 Bft) NO 45 7,5 C 11,4 C 1,6 km/h (1 Bft)
25.05.2012 01:10 11,8 C 77 % 0,0 l/m 0,0 km/h (0 Bft) N-NO 22 7,9 C 11,2 C 0,0 km/h (0 Bft)
25.05.2012 01:15 11,8 C 77 % 0,0 l/m 0,2 km/h (0 Bft) SW 225 7,9 C 11,0 C 0,0 km/h (0 Bft)
25.05.2012 01:20 11,7 C 77 % 0,0 l/m 0,0 km/h (0 Bft) N 360 7,8 C 10,7 C 0,0 km/h (0 Bft)
25.05.2012 01:25 11,0 C 77 % 0,0 l/m 0,0 km/h (0 Bft) NO 45 7,1 C 10,5 C 0,0 km/h (0 Bft)
25.05.2012 01:30 10,3 C 78 % 0,0 l/m 0,0 km/h (0 Bft) S-SW 202 6,6 C 10,1 C 0,0 km/h (0 Bft)
25.05.2012 01:35 10,1 C 79 % 0,0 l/m 0,0 km/h (0 Bft) N-NO 22 6,6 C 9,8 C 0,0 km/h (0 Bft)
25.05.2012 01:40 10,8 C 82 % 0,0 l/m 0,0 km/h (0 Bft) N-NO 22 7,9 C 9,5 C 0,0 km/h (0 Bft)
25.05.2012 01:45 10,9 C 81 % 0,0 l/m 0,0 km/h (0 Bft) NW 315 7,8 C 9,6 C 0,0 km/h (0 Bft)
25.05.2012 01:50 10,3 C 80 % 0,0 l/m 0,0 km/h (0 Bft) NO 45 7,0 C 9,5 C 0,0 km/h (0 Bft)
25.05.2012 01:55 9,9 C 80 % 0,0 l/m 0,0 km/h (0 Bft) S 180 6,6 C 9,4 C 0,0 km/h (0 Bft)
25.05.2012 02:00 9,5 C 81 % 0,0 l/m 0,0 km/h (0 Bft) S 180 6,4 C 9,0 C 0,0 km/h (0 Bft)
25.05.2012 02:05 9,2 C 82 % 0,0 l/m 0,0 km/h (0 Bft) N-NO 22 6,3 C 8,8 C 0,0 km/h (0 Bft)
25.05.2012 02:10 9,1 C 83 % 0,0 l/m 0,0 km/h (0 Bft) NO 45 6,4 C 8,6 C 0,0 km/h (0 Bft)
25.05.2012 02:15 9,2 C 83 % 0,0 l/m 0,0 km/h (0 Bft) NO 45 6,5 C 8,6 C 0,0 km/h (0 Bft)
25.05.2012 02:20 8,9 C 84 % 0,0 l/m 0,0 km/h (0 Bft) NO 45 6,3 C 8,5 C 0,0 km/h (0 Bft)
25.05.2012 02:25 9,0 C 84 % 0,0 l/m 0,0 km/h (0 Bft) N 360 6,4 C 8,4 C 0,0 km/h (0 Bft)
25.05.2012 02:30 9,7 C 85 % 0,0 l/m 0,0 km/h (0 Bft) NO 45 7,3 C 8,4 C 0,0 km/h (0 Bft)
25.05.2012 02:35 9,2 C 85 % 0,0 l/m 0,0 km/h (0 Bft) NO 45 6,8 C 8,4 C 0,0 km/h (0 Bft)
25.05.2012 02:40 9,1 C 85 % 0,0 l/m 0,0 km/h (0 Bft) W 270 6,7 C 8,4 C 0,0 km/h (0 Bft)
25.05.2012 02:45 8,9 C 86 % 0,0 l/m 0,0 km/h (0 Bft) N 360 6,7 C 8,3 C 0,0 km/h (0 Bft)
25.05.2012 02:50 9,1 C 86 % 0,0 l/m 0,0 km/h (0 Bft) NO 45 6,9 C 8,2 C 0,0 km/h (0 Bft)
25.05.2012 02:55 9,1 C 86 % 0,0 l/m 0,0 km/h (0 Bft) NO 45 6,9 C 8,2 C 1,8 km/h (1 Bft)
25.05.2012 03:00 8,7 C 86 % 0,0 l/m 0,0 km/h (0 Bft) O-SO 112 6,5 C 8,1 C 0,0 km/h (0 Bft)
25.05.2012 03:05 8,7 C 87 % 0,0 l/m 0,0 km/h (0 Bft) W 270 6,7 C 8,0 C 0,0 km/h (0 Bft)
25.05.2012 03:10 8,4 C 87 % 0,0 l/m 0,0 km/h (0 Bft) O 90 6,4 C 7,9 C 0,0 km/h (0 Bft)
25.05.2012 03:16 9,0 C 87 % 0,0 l/m 0,0 km/h (0 Bft) N-NO 22 7,0 C 7,8 C 0,0 km/h (0 Bft)
25.05.2012 03:20 8,7 C 88 % 0,0 l/m 0,0 km/h (0 Bft) NO 45 6,8 C 7,9 C 0,0 km/h (0 Bft)
25.05.2012 03:25 8,7 C 88 % 0,0 l/m 0,0 km/h (0 Bft) NO 45 6,8 C 7,7 C 0,0 km/h (0 Bft)
25.05.2012 03:30 8,8 C 88 % 0,0 l/m 0,2 km/h (0 Bft) N-NO 22 6,9 C 7,7 C 0,0 km/h (0 Bft)
25.05.2012 03:35 8,5 C 88 % 0,0 l/m 0,2 km/h (0 Bft) NO 45 6,6 C 7,7 C 0,0 km/h (0 Bft)
25.05.2012 03:40 8,0 C 87 % 0,0 l/m 0,0 km/h (0 Bft) SO 135 6,0 C 7,5 C 0,0 km/h (0 Bft)
25.05.2012 03:45 8,1 C 88 % 0,0 l/m 0,0 km/h (0 Bft) N-NO 22 6,2 C 7,5 C 0,0 km/h (0 Bft)
25.05.2012 03:50 8,1 C 88 % 0,0 l/m 0,0 km/h (0 Bft) W-SW 247 6,2 C 7,5 C 0,0 km/h (0 Bft)
25.05.2012 03:55 7,9 C 88 % 0,0 l/m 0,0 km/h (0 Bft) W-SW 247 6,0 C 7,4 C 0,0 km/h (0 Bft)
25.05.2012 04:00 8,1 C 89 % 0,0 l/m 0,0 km/h (0 Bft) N 360 6,4 C 7,4 C 0,0 km/h (0 Bft)
25.05.2012 04:05 8,1 C 89 % 0,0 l/m 0,0 km/h (0 Bft) S-SW 202 6,4 C 7,5 C 0,0 km/h (0 Bft)
25.05.2012 04:10 7,6 C 89 % 0,0 l/m 0,0 km/h (0 Bft) S 180 5,9 C 7,3 C 0,0 km/h (0 Bft)
25.05.2012 04:15 7,5 C 89 % 0,0 l/m 0,0 km/h (0 Bft) N-NW 337 5,8 C 7,2 C 0,0 km/h (0 Bft)
25.05.2012 04:20 7,6 C 89 % 0,0 l/m 0,0 km/h (0 Bft) N-NO 22 5,9 C 7,1 C 0,0 km/h (0 Bft)
25.05.2012 04:25 7,6 C 89 % 0,0 l/m 0,0 km/h (0 Bft) N-NO 22 5,9 C 7,0 C 0,0 km/h (0 Bft)
25.05.2012 04:30 7,5 C 89 % 0,0 l/m 0,0 km/h (0 Bft) S-SW 202 5,8 C 7,0 C 0,0 km/h (0 Bft)
25.05.2012 04:35 7,3 C 89 % 0,0 l/m 0,0 km/h (0 Bft) N-NO 22 5,6 C 6,9 C 0,0 km/h (0 Bft)
25.05.2012 04:40 7,1 C 89 % 0,0 l/m 0,0 km/h (0 Bft) W-NW 292 5,4 C 6,8 C 0,0 km/h (0 Bft)
25.05.2012 04:45 7,0 C 89 % 0,0 l/m 0,0 km/h (0 Bft) S-SW 202 5,3 C 6,7 C 0,0 km/h (0 Bft)
25.05.2012 04:50 7,0 C 89 % 0,0 l/m 0,0 km/h (0 Bft) W-SW 247 5,3 C 6,6 C 0,0 km/h (0 Bft)
25.05.2012 04:55 6,8 C 89 % 0,0 l/m 0,0 km/h (0 Bft) N-NW 337 5,1 C 6,6 C 0,0 km/h (0 Bft)
25.05.2012 05:00 6,8 C 89 % 0,0 l/m 0,0 km/h (0 Bft) W-NW 292 5,1 C 6,4 C 0,0 km/h (0 Bft)
25.05.2012 05:05 6,9 C 89 % 0,0 l/m 0,0 km/h (0 Bft) N-NO 22 5,2 C 6,3 C 0,0 km/h (0 Bft)
25.05.2012 05:10 7,5 C 90 % 0,0 l/m 0,0 km/h (0 Bft) W 270 6,0 C 6,8 C 0,0 km/h (0 Bft)
25.05.2012 05:15 7,2 C 90 % 0,0 l/m 0,0 km/h (0 Bft) NO 45 5,7 C 6,8 C 0,0 km/h (0 Bft)
25.05.2012 05:20 6,9 C 90 % 0,0 l/m 0,0 km/h (0 Bft) W-SW 247 5,4 C 6,6 C 0,0 km/h (0 Bft)
25.05.2012 05:25 7,0 C 90 % 0,0 l/m 0,0 km/h (0 Bft) NO 45 5,5 C 6,6 C 0,0 km/h (0 Bft)
25.05.2012 05:30 7,2 C 90 % 0,0 l/m 0,0 km/h (0 Bft) W-SW 247 5,7 C 6,8 C 0,0 km/h (0 Bft)
25.05.2012 05:35 7,4 C 90 % 0,0 l/m 0,0 km/h (0 Bft) SW 225 5,9 C 7,0 C 0,0 km/h (0 Bft)
25.05.2012 05:40 7,6 C 90 % 0,0 l/m 0,0 km/h (0 Bft) N 360 6,1 C 7,3 C 0,0 km/h (0 Bft)
25.05.2012 05:45 7,8 C 90 % 0,0 l/m 0,0 km/h (0 Bft) N 360 6,3 C 7,5 C 0,0 km/h (0 Bft)
25.05.2012 05:50 8,4 C 90 % 0,0 l/m 0,0 km/h (0 Bft) W-SW 247 6,9 C 7,9 C 0,0 km/h (0 Bft)
25.05.2012 05:55 8,6 C 90 % 0,0 l/m 0,0 km/h (0 Bft) W 270 7,1 C 8,4 C 0,0 km/h (0 Bft)
25.05.2012 06:00 8,5 C 90 % 0,0 l/m 0,0 km/h (0 Bft) N-NO 22 7,0 C 8,5 C 0,0 km/h (0 Bft)
25.05.2012 06:05 9,0 C 90 % 0,0 l/m 0,0 km/h (0 Bft) SW 225 7,4 C 8,6 C 0,0 km/h (0 Bft)
25.05.2012 06:10 10,1 C 91 % 0,0 l/m 0,2 km/h (0 Bft) SW 225 8,7 C 9,3 C 2,1 km/h (1 Bft)
25.05.2012 06:15 10,3 C 91 % 0,0 l/m 0,3 km/h (0 Bft) S 180 8,9 C 9,8 C 0,0 km/h (0 Bft)
25.05.2012 06:20 10,5 C 92 % 0,0 l/m 0,8 km/h (0 Bft) W-NW 292 9,3 C 10,2 C 4,2 km/h (1 Bft)
25.05.2012 06:25 10,5 C 92 % 0,0 l/m 1,6 km/h (1 Bft) W 270 9,3 C 10,4 C 4,7 km/h (1 Bft)
25.05.2012 06:30 10,7 C 92 % 0,0 l/m 2,7 km/h (1 Bft) W-SW 247 9,5 C 10,5 C 4,8 km/h (1 Bft)
25.05.2012 06:35 10,7 C 92 % 0,0 l/m 2,7 km/h (1 Bft) S-SW 202 9,5 C 10,6 C 1,6 km/h (1 Bft)
25.05.2012 06:40 10,8 C 92 % 0,0 l/m 1,9 km/h (1 Bft) SO 135 9,6 C 10,6 C 5,1 km/h (1 Bft)
25.05.2012 06:45 10,8 C 92 % 0,0 l/m 1,6 km/h (1 Bft) NW 315 9,6 C 10,7 C 3,2 km/h (1 Bft)
25.05.2012 06:50 10,8 C 92 % 0,0 l/m 1,8 km/h (1 Bft) N 360 9,6 C 10,7 C 6,4 km/h (2 Bft)
25.05.2012 06:55 10,8 C 92 % 0,0 l/m 2,4 km/h (1 Bft) W-NW 292 9,6 C 10,7 C 2,9 km/h (1 Bft)
25.05.2012 07:00 10,8 C 92 % 0,0 l/m 2,3 km/h (1 Bft) N-NO 22 9,6 C 10,7 C 3,2 km/h (1 Bft)
25.05.2012 07:05 10,8 C 92 % 0,0 l/m 2,3 km/h (1 Bft) NW 315 9,6 C 10,7 C 2,1 km/h (1 Bft)
25.05.2012 07:10 11,0 C 91 % 0,0 l/m 2,7 km/h (1 Bft) NO 45 9,6 C 10,7 C 1,8 km/h (1 Bft)
25.05.2012 07:15 11,0 C 91 % 0,0 l/m 2,3 km/h (1 Bft) N-NW 337 9,6 C 10,8 C 3,7 km/h (1 Bft)
25.05.2012 07:20 11,0 C 91 % 0,0 l/m 1,6 km/h (1 Bft) W-NW 292 9,6 C 10,9 C 3,1 km/h (1 Bft)
25.05.2012 07:25 11,1 C 91 % 0,0 l/m 2,3 km/h (1 Bft) N-NW 337 9,7 C 10,8 C 4,0 km/h (1 Bft)
25.05.2012 07:30 11,3 C 91 % 0,0 l/m 3,2 km/h (1 Bft) W 270 9,9 C 10,8 C 10,0 km/h (2 Bft)
25.05.2012 07:35 11,4 C 90 % 0,0 l/m 3,2 km/h (1 Bft) W 270 9,8 C 11,0 C 5,1 km/h (1 Bft)
25.05.2012 07:40 11,3 C 89 % 0,0 l/m 3,2 km/h (1 Bft) S 180 9,6 C 11,0 C 3,2 km/h (1 Bft)
25.05.2012 07:45 11,3 C 89 % 0,0 l/m 3,9 km/h (1 Bft) W 270 9,6 C 11,1 C 6,4 km/h (2 Bft)
25.05.2012 07:50 11,7 C 88 % 0,0 l/m 3,5 km/h (1 Bft) N-NW 337 9,8 C 11,3 C 2,7 km/h (1 Bft)
25.05.2012 07:55 11,8 C 87 % 0,0 l/m 3,2 km/h (1 Bft) N 360 9,7 C 11,8 C 2,1 km/h (1 Bft)
25.05.2012 08:00 12,0 C 86 % 0,0 l/m 2,7 km/h (1 Bft) W 270 9,7 C 12,1 C 6,1 km/h (2 Bft)
25.05.2012 08:05 12,2 C 86 % 0,0 l/m 2,7 km/h (1 Bft) W 270 9,9 C 12,4 C 0,0 km/h (0 Bft)
25.05.2012 08:10 13,5 C 84 % 0,0 l/m 2,6 km/h (1 Bft) W-NW 292 10,8 C 13,4 C 2,4 km/h (1 Bft)
25.05.2012 08:15 14,9 C 77 % 0,0 l/m 2,4 km/h (1 Bft) W-NW 292 12,2 C 14,7 C 7,4 km/h (2 Bft)
25.05.2012 08:20 15,5 C 69 % 0,0 l/m 4,0 km/h (1 Bft) N 360 9,8 C 16,4 C 7,9 km/h (2 Bft)
25.05.2012 08:25 14,1 C 73 % 0,0 l/m 4,5 km/h (1 Bft) NW 315 9,3 C 16,2 C 5,3 km/h (1 Bft)
25.05.2012 08:30 14,4 C 75 % 0,0 l/m 2,7 km/h (1 Bft) O-SO 112 10,0 C 15,6 C 0,0 km/h (0 Bft)
25.05.2012 08:35 13,6 C 76 % 0,0 l/m 3,1 km/h (1 Bft) W 270 9,4 C 15,5 C 5,3 km/h (1 Bft)
25.05.2012 08:40 13,1 C 78 % 0,0 l/m 4,0 km/h (1 Bft) W-NW 292 9,4 C 14,4 C 2,7 km/h (1 Bft)
25.05.2012 08:45 13,0 C 79 % 0,0 l/m 4,8 km/h (1 Bft) W-SW 247 9,4 C 13,9 C 4,8 km/h (1 Bft)
25.05.2012 08:50 13,1 C 78 % 0,0 l/m 4,7 km/h (1 Bft) W-NW 292 9,4 C 13,5 C 3,5 km/h (1 Bft)
25.05.2012 08:55 14,9 C 71 % 0,0 l/m 4,7 km/h (1 Bft) NW 315 11,5 C 14,4 C 4,2 km/h (1 Bft)
25.05.2012 09:00 15,7 C 67 % 0,0 l/m 4,0 km/h (1 Bft) S 180 11,0 C 16,0 C 2,7 km/h (1 Bft)
25.05.2012 09:05 16,3 C 59 % 0,0 l/m 4,2 km/h (1 Bft) W-NW 292 10,8 C 17,7 C 1,9 km/h (1 Bft)
25.05.2012 09:10 16,6 C 58 % 0,0 l/m 4,2 km/h (1 Bft) O-SO 112 10,1 C 19,3 C 10,8 km/h (2 Bft)
25.05.2012 09:15 16,6 C 58 % 0,0 l/m 4,5 km/h (1 Bft) N-NW 337 9,9 C 19,3 C 8,2 km/h (2 Bft)
25.05.2012 09:20 16,8 C 58 % 0,0 l/m 5,5 km/h (1 Bft) S-SW 202 9,7 C 18,6 C 3,2 km/h (1 Bft)
25.05.2012 09:25 17,0 C 58 % 0,0 l/m 5,0 km/h (1 Bft) S 180 10,1 C 18,9 C 2,9 km/h (1 Bft)
25.05.2012 09:30 17,4 C 59 % 0,0 l/m 4,7 km/h (1 Bft) SW 225 9,6 C 19,6 C 11,7 km/h (2 Bft)
25.05.2012 09:35 17,6 C 55 % 0,0 l/m 5,3 km/h (1 Bft) W-SW 247 9,9 C 19,5 C 8,9 km/h (2 Bft)
25.05.2012 09:40 17,9 C 55 % 0,0 l/m 6,8 km/h (2 Bft) W-NW 292 10,3 C 19,4 C 11,3 km/h (2 Bft)
25.05.2012 09:45 17,8 C 56 % 0,0 l/m 6,3 km/h (2 Bft) W-SW 247 9,8 C 19,6 C 6,0 km/h (2 Bft)
25.05.2012 09:50 17,9 C 54 % 0,0 l/m 6,1 km/h (2 Bft) W 270 9,3 C 19,3 C 14,0 km/h (3 Bft)
25.05.2012 09:55 18,0 C 55 % 0,0 l/m 6,1 km/h (2 Bft) S-SO 157 10,1 C 19,4 C 6,0 km/h (2 Bft)
25.05.2012 10:00 17,7 C 57 % 0,0 l/m 6,1 km/h (2 Bft) W 270 9,4 C 19,6 C 7,9 km/h (2 Bft)
25.05.2012 10:05 18,2 C 54 % 0,0 l/m 6,0 km/h (2 Bft) N-NO 22 9,6 C 19,3 C 6,8 km/h (2 Bft)
25.05.2012 10:10 19,1 C 54 % 0,0 l/m 4,7 km/h (1 Bft) W-SW 247 10,8 C 20,4 C 9,0 km/h (2 Bft)
25.05.2012 10:15 19,2 C 52 % 0,0 l/m 4,7 km/h (1 Bft) W-NW 292 10,4 C 21,0 C 5,6 km/h (1 Bft)
25.05.2012 10:20 19,3 C 49 % 0,0 l/m 5,5 km/h (1 Bft) W-SW 247 9,0 C 21,4 C 7,4 km/h (2 Bft)
25.05.2012 10:25 18,7 C 53 % 0,0 l/m 5,6 km/h (1 Bft) W-NW 292 9,8 C 21,0 C 8,9 km/h (2 Bft)
25.05.2012 10:30 18,3 C 55 % 0,0 l/m 5,0 km/h (1 Bft) NO 45 9,1 C 20,4 C 2,3 km/h (1 Bft)
25.05.2012 10:35 18,9 C 55 % 0,0 l/m 4,7 km/h (1 Bft) W-SW 247 9,7 C 20,7 C 6,1 km/h (2 Bft)
25.05.2012 10:40 17,6 C 56 % 0,0 l/m 4,5 km/h (1 Bft) W-SW 247 8,7 C 20,4 C 6,4 km/h (2 Bft)
25.05.2012 10:45 16,6 C 58 % 0,0 l/m 5,3 km/h (1 Bft) SW 225 8,3 C 18,8 C 5,0 km/h (1 Bft)
25.05.2012 10:50 15,7 C 59 % 0,0 l/m 4,8 km/h (1 Bft) S-SW 202 7,7 C 17,2 C 8,0 km/h (2 Bft)
25.05.2012 10:55 16,7 C 56 % 0,0 l/m 5,1 km/h (1 Bft) N-NW 337 7,9 C 16,8 C 8,7 km/h (2 Bft)
25.05.2012 11:00 17,8 C 50 % 0,0 l/m 7,6 km/h (2 Bft) W-SW 247 7,2 C 17,3 C 20,3 km/h (4 Bft)
25.05.2012 11:05 18,4 C 48 % 0,0 l/m 9,0 km/h (2 Bft) W 270 7,2 C 17,5 C 18,3 km/h (3 Bft)
25.05.2012 11:10 19,2 C 46 % 0,0 l/m 9,8 km/h (2 Bft) W-SW 247 7,3 C 18,2 C 13,2 km/h (3 Bft)
25.05.2012 11:15 19,0 C 47 % 0,0 l/m 9,8 km/h (2 Bft) W 270 7,4 C 18,3 C 11,6 km/h (2 Bft)
25.05.2012 11:20 19,2 C 45 % 0,0 l/m 10,5 km/h (2 Bft) W-SW 247 7,0 C 18,5 C 21,7 km/h (4 Bft)
25.05.2012 11:25 18,6 C 46 % 0,0 l/m 9,5 km/h (2 Bft) W-SW 247 6,8 C 18,3 C 8,7 km/h (2 Bft)
25.05.2012 11:30 19,1 C 45 % 0,0 l/m 8,4 km/h (2 Bft) W 270 6,9 C 19,1 C 8,0 km/h (2 Bft)
25.05.2012 11:35 19,5 C 45 % 0,0 l/m 7,9 km/h (2 Bft) SO 135 7,2 C 19,7 C 6,1 km/h (2 Bft)
25.05.2012 11:40 19,6 C 44 % 0,0 l/m 7,9 km/h (2 Bft) W 270 7,0 C 20,1 C 10,3 km/h (2 Bft)
25.05.2012 11:45 19,4 C 41 % 0,0 l/m 7,6 km/h (2 Bft) W 270 5,8 C 20,2 C 12,2 km/h (2 Bft)
25.05.2012 11:50 19,5 C 40 % 0,0 l/m 7,9 km/h (2 Bft) N-NW 337 5,5 C 20,1 C 10,3 km/h (2 Bft)
25.05.2012 11:55 19,7 C 40 % 0,0 l/m 8,2 km/h (2 Bft) W 270 5,7 C 20,0 C 12,1 km/h (2 Bft)
25.05.2012 12:00 19,8 C 41 % 0,0 l/m 7,6 km/h (2 Bft) N-NW 337 6,2 C 20,3 C 8,5 km/h (2 Bft)
25.05.2012 12:05 20,1 C 41 % 0,0 l/m 6,6 km/h (2 Bft) N-NW 337 6,4 C 20,9 C 8,2 km/h (2 Bft)
25.05.2012 12:10 20,2 C 38 % 0,0 l/m 6,0 km/h (2 Bft) W-NW 292 5,4 C 21,3 C 12,2 km/h (2 Bft)
25.05.2012 12:15 20,2 C 39 % 0,0 l/m 6,1 km/h (2 Bft) W 270 5,8 C 21,3 C 5,8 km/h (2 Bft)
25.05.2012 12:20 20,0 C 39 % 0,0 l/m 7,6 km/h (2 Bft) W-SW 247 5,6 C 20,7 C 18,2 km/h (3 Bft)
25.05.2012 12:25 19,9 C 39 % 0,0 l/m 8,9 km/h (2 Bft) N-NW 337 5,5 C 19,8 C 13,8 km/h (3 Bft)
25.05.2012 12:30 19,9 C 40 % 0,0 l/m 8,5 km/h (2 Bft) NO 45 5,9 C 19,9 C 5,1 km/h (1 Bft)
25.05.2012 12:35 20,6 C 41 % 0,0 l/m 5,8 km/h (2 Bft) W-NW 292 6,9 C 21,4 C 8,7 km/h (2 Bft)
25.05.2012 12:40 20,4 C 39 % 0,0 l/m 6,4 km/h (2 Bft) W-NW 292 6,0 C 21,4 C 15,0 km/h (3 Bft)
25.05.2012 12:45 19,9 C 40 % 0,0 l/m 7,7 km/h (2 Bft) W-SW 247 5,9 C 20,7 C 5,5 km/h (1 Bft)
25.05.2012 12:50 20,1 C 37 % 0,0 l/m 6,6 km/h (2 Bft) N 360 5,0 C 21,3 C 7,2 km/h (2 Bft)
25.05.2012 12:55 20,4 C 39 % 0,0 l/m 6,1 km/h (2 Bft) W 270 6,0 C 21,6 C 7,4 km/h (2 Bft)
25.05.2012 13:00 20,4 C 39 % 0,0 l/m 4,8 km/h (1 Bft) W-NW 292 6,0 C 22,2 C 7,2 km/h (2 Bft)
25.05.2012 13:05 20,6 C 43 % 0,0 l/m 5,0 km/h (1 Bft) W-NW 292 7,6 C 22,2 C 8,0 km/h (2 Bft)
25.05.2012 13:10 20,1 C 39 % 0,0 l/m 5,6 km/h (1 Bft) SW 225 5,7 C 22,0 C 4,5 km/h (1 Bft)
25.05.2012 13:15 20,4 C 41 % 0,0 l/m 5,6 km/h (1 Bft) W 270 6,7 C 22,2 C 10,5 km/h (2 Bft)
25.05.2012 13:20 20,5 C 40 % 0,0 l/m 6,4 km/h (2 Bft) W-SW 247 6,4 C 22,0 C 16,6 km/h (3 Bft)
25.05.2012 13:25 20,0 C 40 % 0,0 l/m 7,2 km/h (2 Bft) W 270 6,0 C 21,3 C 7,1 km/h (2 Bft)
25.05.2012 13:30 20,4 C 39 % 0,0 l/m 7,7 km/h (2 Bft) SW 225 6,0 C 20,7 C 9,3 km/h (2 Bft)
25.05.2012 13:35 20,3 C 40 % 0,0 l/m 8,4 km/h (2 Bft) W-NW 292 6,3 C 20,2 C 9,3 km/h (2 Bft)
25.05.2012 13:40 20,2 C 41 % 0,0 l/m 8,2 km/h (2 Bft) W-NW 292 6,5 C 20,0 C 12,1 km/h (2 Bft)
25.05.2012 13:45 20,1 C 41 % 0,0 l/m 8,0 km/h (2 Bft) W-SW 247 6,4 C 20,3 C 11,7 km/h (2 Bft)
25.05.2012 13:50 20,4 C 41 % 0,0 l/m 7,1 km/h (2 Bft) O-SO 112 6,7 C 21,0 C 7,7 km/h (2 Bft)
25.05.2012 13:55 20,8 C 41 % 0,0 l/m 6,6 km/h (2 Bft) S-SW 202 7,1 C 21,6 C 6,4 km/h (2 Bft)
25.05.2012 14:00 20,3 C 38 % 0,0 l/m 7,4 km/h (2 Bft) W 270 5,5 C 21,3 C 11,7 km/h (2 Bft)
25.05.2012 14:05 20,3 C 38 % 0,0 l/m 7,6 km/h (2 Bft) N 360 5,5 C 21,1 C 8,0 km/h (2 Bft)
25.05.2012 14:10 20,6 C 39 % 0,0 l/m 6,8 km/h (2 Bft) NW 315 6,2 C 21,7 C 13,8 km/h (3 Bft)
25.05.2012 14:15 20,3 C 37 % 0,0 l/m 8,0 km/h (2 Bft) W 270 5,1 C 21,1 C 11,7 km/h (2 Bft)
25.05.2012 14:20 20,5 C 38 % 0,0 l/m 8,7 km/h (2 Bft) N-NW 337 5,7 C 20,8 C 11,3 km/h (2 Bft)
25.05.2012 14:25 20,8 C 38 % 0,0 l/m 7,4 km/h (2 Bft) W-SW 247 6,0 C 21,5 C 8,4 km/h (2 Bft)
25.05.2012 14:30 20,8 C 37 % 0,0 l/m 7,2 km/h (2 Bft) W-NW 292 5,6 C 21,7 C 15,3 km/h (3 Bft)
25.05.2012 14:35 21,4 C 37 % 0,0 l/m 7,1 km/h (2 Bft) W-NW 292 6,1 C 21,8 C 4,8 km/h (1 Bft)
25.05.2012 14:40 20,7 C 35 % 0,0 l/m 7,2 km/h (2 Bft) W 270 4,7 C 21,7 C 7,2 km/h (2 Bft)
25.05.2012 14:45 20,9 C 36 % 0,0 l/m 6,8 km/h (2 Bft) W-SW 247 5,3 C 22,0 C 8,2 km/h (2 Bft)
25.05.2012 14:50 21,0 C 35 % 0,0 l/m 6,4 km/h (2 Bft) N-NW 337 5,0 C 22,2 C 5,1 km/h (1 Bft)
25.05.2012 14:55 20,7 C 34 % 0,0 l/m 6,6 km/h (2 Bft) N-NW 337 4,3 C 22,1 C 4,7 km/h (1 Bft)
25.05.2012 15:00 20,9 C 33 % 0,0 l/m 7,9 km/h (2 Bft) W-SW 247 4,0 C 21,6 C 15,6 km/h (3 Bft)
25.05.2012 15:05 20,8 C 34 % 0,0 l/m 8,4 km/h (2 Bft) NW 315 4,4 C 21,2 C 6,0 km/h (2 Bft)
25.05.2012 15:10 21,2 C 34 % 0,0 l/m 7,7 km/h (2 Bft) N 360 4,7 C 21,7 C 3,1 km/h (1 Bft)
25.05.2012 15:15 21,0 C 33 % 0,0 l/m 6,0 km/h (2 Bft) S 180 4,1 C 22,3 C 4,7 km/h (1 Bft)
25.05.2012 15:20 21,2 C 34 % 0,0 l/m 6,3 km/h (2 Bft) W-NW 292 4,7 C 22,6 C 11,1 km/h (2 Bft)
25.05.2012 15:25 20,8 C 35 % 0,0 l/m 7,4 km/h (2 Bft) W 270 4,8 C 22,1 C 11,9 km/h (2 Bft)
25.05.2012 15:30 21,1 C 35 % 0,0 l/m 8,2 km/h (2 Bft) W 270 5,0 C 21,7 C 21,1 km/h (4 Bft)
25.05.2012 15:35 20,9 C 33 % 0,0 l/m 8,2 km/h (2 Bft) W-SW 247 4,0 C 21,5 C 11,1 km/h (2 Bft)
25.05.2012 15:40 20,9 C 34 % 0,0 l/m 7,9 km/h (2 Bft) SW 225 4,4 C 21,8 C 7,2 km/h (2 Bft)
25.05.2012 15:45 21,0 C 33 % 0,0 l/m 8,0 km/h (2 Bft) W-SW 247 4,1 C 21,8 C 12,7 km/h (3 Bft)
25.05.2012 15:50 21,2 C 34 % 0,0 l/m 6,9 km/h (2 Bft) W 270 4,7 C 22,2 C 12,6 km/h (3 Bft)
25.05.2012 15:55 21,0 C 33 % 0,0 l/m 6,8 km/h (2 Bft) W-NW 292 4,1 C 22,5 C 10,9 km/h (2 Bft)
25.05.2012 16:00 20,8 C 33 % 0,0 l/m 8,0 km/h (2 Bft) W-NW 292 3,9 C 22,0 C 12,1 km/h (2 Bft)
25.05.2012 16:05 20,8 C 34 % 0,0 l/m 7,9 km/h (2 Bft) S 180 4,4 C 21,9 C 11,6 km/h (2 Bft)
25.05.2012 16:10 20,6 C 34 % 0,0 l/m 8,4 km/h (2 Bft) N 360 4,2 C 21,6 C 12,6 km/h (3 Bft)
25.05.2012 16:15 20,4 C 33 % 0,0 l/m 8,7 km/h (2 Bft) W 270 3,6 C 21,3 C 9,7 km/h (2 Bft)
25.05.2012 16:20 20,6 C 35 % 0,0 l/m 7,7 km/h (2 Bft) O-SO 112 4,6 C 21,9 C 6,8 km/h (2 Bft)
25.05.2012 16:25 20,6 C 34 % 0,0 l/m 6,4 km/h (2 Bft) W 270 4,2 C 22,5 C 7,1 km/h (2 Bft)
25.05.2012 16:30 20,1 C 33 % 0,0 l/m 7,6 km/h (2 Bft) W-SW 247 3,3 C 22,3 C 17,2 km/h (3 Bft)
25.05.2012 16:35 20,0 C 34 % 0,0 l/m 7,9 km/h (2 Bft) S-SW 202 3,7 C 21,8 C 6,3 km/h (2 Bft)
25.05.2012 16:40 20,1 C 34 % 0,0 l/m 7,4 km/h (2 Bft) N-NW 337 3,7 C 22,4 C 9,8 km/h (2 Bft)
25.05.2012 16:45 19,8 C 34 % 0,0 l/m 6,9 km/h (2 Bft) N-NW 337 3,5 C 22,5 C 12,7 km/h (3 Bft)
25.05.2012 16:50 19,4 C 36 % 0,0 l/m 7,9 km/h (2 Bft) W-SW 247 3,9 C 21,9 C 13,2 km/h (3 Bft)
25.05.2012 16:55 19,1 C 36 % 0,0 l/m 8,0 km/h (2 Bft) N 360 3,7 C 21,9 C 7,9 km/h (2 Bft)
25.05.2012 17:00 19,1 C 36 % 0,0 l/m 7,2 km/h (2 Bft) W-NW 292 3,7 C 22,2 C 12,6 km/h (3 Bft)
25.05.2012 17:05 19,0 C 36 % 0,0 l/m 8,4 km/h (2 Bft) NO 45 3,6 C 21,5 C 9,3 km/h (2 Bft)
25.05.2012 17:10 18,9 C 37 % 0,0 l/m 8,9 km/h (2 Bft) S-SO 157 3,9 C 21,5 C 12,1 km/h (2 Bft)
25.05.2012 17:15 18,7 C 38 % 0,0 l/m 7,1 km/h (2 Bft) W-NW 292 4,1 C 22,1 C 2,6 km/h (1 Bft)
25.05.2012 17:20 18,7 C 39 % 0,0 l/m 7,1 km/h (2 Bft) W-SW 247 4,5 C 22,1 C 4,2 km/h (1 Bft)
25.05.2012 17:25 18,8 C 38 % 0,0 l/m 7,2 km/h (2 Bft) W-NW 292 4,2 C 22,0 C 3,1 km/h (1 Bft)
25.05.2012 17:30 18,5 C 37 % 0,0 l/m 8,4 km/h (2 Bft) W-NW 292 3,5 C 21,4 C 9,0 km/h (2 Bft)
25.05.2012 17:35 18,4 C 37 % 0,0 l/m 8,9 km/h (2 Bft) W-SW 247 3,5 C 21,1 C 12,4 km/h (3 Bft)
25.05.2012 17:40 18,3 C 37 % 0,0 l/m 8,0 km/h (2 Bft) W 270 3,4 C 21,5 C 10,5 km/h (2 Bft)
25.05.2012 17:45 18,2 C 37 % 0,0 l/m 7,9 km/h (2 Bft) W-NW 292 3,3 C 21,3 C 6,6 km/h (2 Bft)
25.05.2012 17:50 18,2 C 36 % 0,0 l/m 8,7 km/h (2 Bft) W-NW 292 2,9 C 20,9 C 7,7 km/h (2 Bft)
25.05.2012 17:55 18,2 C 36 % 0,0 l/m 9,8 km/h (2 Bft) W-NW 292 2,9 C 20,2 C 11,1 km/h (2 Bft)
25.05.2012 18:00 18,3 C 35 % 0,0 l/m 9,2 km/h (2 Bft) W-SW 247 2,6 C 20,5 C 12,4 km/h (3 Bft)
25.05.2012 18:05 18,2 C 36 % 0,0 l/m 7,7 km/h (2 Bft) SW 225 2,9 C 21,1 C 8,9 km/h (2 Bft)
25.05.2012 18:10 18,2 C 38 % 0,0 l/m 7,7 km/h (2 Bft) W-NW 292 3,7 C 21,0 C 10,9 km/h (2 Bft)
25.05.2012 18:15 18,2 C 37 % 0,0 l/m 7,4 km/h (2 Bft) W-SW 247 3,3 C 21,4 C 5,1 km/h (1 Bft)
25.05.2012 18:20 18,2 C 37 % 0,0 l/m 5,5 km/h (1 Bft) S 180 3,3 C 22,0 C 4,0 km/h (1 Bft)
25.05.2012 18:25 18,3 C 37 % 0,0 l/m 5,3 km/h (1 Bft) N-NO 22 3,4 C 22,1 C 4,3 km/h (1 Bft)
25.05.2012 18:30 18,3 C 37 % 0,0 l/m 6,6 km/h (2 Bft) W-NW 292 3,4 C 21,8 C 12,2 km/h (2 Bft)
25.05.2012 18:35 18,1 C 36 % 0,0 l/m 7,4 km/h (2 Bft) W-NW 292 2,8 C 21,4 C 12,1 km/h (2 Bft)
25.05.2012 18:40 17,9 C 37 % 0,0 l/m 8,0 km/h (2 Bft) W 270 3,0 C 20,7 C 8,4 km/h (2 Bft)
25.05.2012 18:45 17,9 C 38 % 0,0 l/m 7,4 km/h (2 Bft) W 270 3,4 C 20,8 C 10,5 km/h (2 Bft)
25.05.2012 18:50 17,7 C 36 % 0,0 l/m 7,2 km/h (2 Bft) W-NW 292 2,4 C 20,7 C 12,1 km/h (2 Bft)
25.05.2012 18:55 17,6 C 37 % 0,0 l/m 7,2 km/h (2 Bft) W-NW 292 2,7 C 20,7 C 7,7 km/h (2 Bft)
25.05.2012 19:00 17,5 C 38 % 0,0 l/m 6,3 km/h (2 Bft) N-NW 337 3,0 C 21,0 C 7,6 km/h (2 Bft)
25.05.2012 19:05 17,4 C 38 % 0,0 l/m 6,0 km/h (2 Bft) W-NW 292 2,9 C 21,0 C 17,2 km/h (3 Bft)
25.05.2012 19:10 17,2 C 38 % 0,0 l/m 6,0 km/h (2 Bft) W-SW 247 2,8 C 20,9 C 9,3 km/h (2 Bft)
25.05.2012 19:15 17,2 C 38 % 0,0 l/m 6,0 km/h (2 Bft) N-NW 337 2,8 C 20,8 C 7,1 km/h (2 Bft)
25.05.2012 19:20 17,1 C 40 % 0,0 l/m 4,8 km/h (1 Bft) W 270 3,4 C 20,8 C 2,7 km/h (1 Bft)
25.05.2012 19:25 17,0 C 40 % 0,0 l/m 4,7 km/h (1 Bft) W 270 3,3 C 20,9 C 10,6 km/h (2 Bft)
25.05.2012 19:30 17,0 C 40 % 0,0 l/m 6,1 km/h (2 Bft) N-NW 337 3,3 C 20,4 C 15,0 km/h (3 Bft)
25.05.2012 19:35 16,9 C 41 % 0,0 l/m 6,6 km/h (2 Bft) W-SW 247 3,6 C 20,1 C 5,0 km/h (1 Bft)
25.05.2012 19:40 16,7 C 41 % 0,0 l/m 5,1 km/h (1 Bft) W 270 3,4 C 20,2 C 8,0 km/h (2 Bft)
25.05.2012 19:45 16,7 C 41 % 0,0 l/m 5,0 km/h (1 Bft) W-NW 292 3,4 C 19,9 C 11,3 km/h (2 Bft)
25.05.2012 19:50 16,5 C 43 % 0,0 l/m 5,6 km/h (1 Bft) W-SW 247 3,9 C 19,5 C 6,9 km/h (2 Bft)
25.05.2012 19:55 16,4 C 43 % 0,0 l/m 5,0 km/h (1 Bft) W-NW 292 3,8 C 19,4 C 5,5 km/h (1 Bft)
25.05.2012 20:00 16,3 C 44 % 0,0 l/m 4,7 km/h (1 Bft) W-SW 247 4,0 C 19,2 C 2,7 km/h (1 Bft)
25.05.2012 20:05 16,2 C 45 % 0,0 l/m 4,8 km/h (1 Bft) SW 225 4,3 C 19,0 C 3,4 km/h (1 Bft)
25.05.2012 20:10 16,0 C 46 % 0,0 l/m 4,5 km/h (1 Bft) W-NW 292 4,4 C 18,7 C 7,9 km/h (2 Bft)
25.05.2012 20:15 15,9 C 47 % 0,0 l/m 4,7 km/h (1 Bft) N-NW 337 4,6 C 18,5 C 4,5 km/h (1 Bft)
25.05.2012 20:20 15,6 C 48 % 0,0 l/m 4,5 km/h (1 Bft) W 270 4,6 C 18,1 C 5,0 km/h (1 Bft)
25.05.2012 20:25 15,4 C 48 % 0,0 l/m 3,9 km/h (1 Bft) N-NW 337 4,4 C 17,9 C 3,5 km/h (1 Bft)
25.05.2012 20:30 15,1 C 49 % 0,0 l/m 2,7 km/h (1 Bft) W-NW 292 4,5 C 17,5 C 5,5 km/h (1 Bft)
25.05.2012 20:35 14,7 C 50 % 0,0 l/m 2,3 km/h (1 Bft) W-NW 292 4,4 C 17,2 C 0,0 km/h (0 Bft)
25.05.2012 20:40 14,3 C 50 % 0,0 l/m 1,6 km/h (1 Bft) N 360 4,0 C 16,8 C 0,0 km/h (0 Bft)
25.05.2012 20:45 13,9 C 51 % 0,0 l/m 1,1 km/h (1 Bft) W-NW 292 3,9 C 16,4 C 4,5 km/h (1 Bft)
25.05.2012 20:50 13,7 C 51 % 0,0 l/m 0,6 km/h (0 Bft) NO 45 3,8 C 15,6 C 0,0 km/h (0 Bft)
25.05.2012 20:55 13,6 C 52 % 0,0 l/m 0,5 km/h (0 Bft) N 360 3,9 C 14,9 C 0,0 km/h (0 Bft)
25.05.2012 21:00 13,2 C 52 % 0,0 l/m 0,3 km/h (0 Bft) NO 45 3,6 C 13,9 C 0,0 km/h (0 Bft)
25.05.2012 21:05 13,1 C 53 % 0,0 l/m 0,3 km/h (0 Bft) N-NO 22 3,7 C 13,4 C 0,0 km/h (0 Bft)
25.05.2012 21:10 13,1 C 53 % 0,0 l/m 0,2 km/h (0 Bft) O 90 3,7 C 12,8 C 1,6 km/h (1 Bft)
25.05.2012 21:15 12,8 C 55 % 0,0 l/m 0,2 km/h (0 Bft) N-NO 22 4,0 C 12,5 C 1,6 km/h (1 Bft)
25.05.2012 21:20 12,4 C 56 % 0,0 l/m 0,2 km/h (0 Bft) O-NO 67 3,9 C 11,8 C 1,8 km/h (1 Bft)
25.05.2012 21:25 12,1 C 57 % 0,0 l/m 0,2 km/h (0 Bft) N-NO 22 3,8 C 11,4 C 0,0 km/h (0 Bft)
25.05.2012 21:30 11,7 C 58 % 0,0 l/m 0,2 km/h (0 Bft) O-NO 67 3,7 C 10,9 C 0,0 km/h (0 Bft)
25.05.2012 21:35 11,6 C 58 % 0,0 l/m 0,2 km/h (0 Bft) N 360 3,6 C 10,6 C 0,0 km/h (0 Bft)
25.05.2012 21:40 11,2 C 59 % 0,0 l/m 0,2 km/h (0 Bft) N-NO 22 3,5 C 10,2 C 0,0 km/h (0 Bft)
25.05.2012 21:45 11,1 C 59 % 0,0 l/m 0,2 km/h (0 Bft) N-NO 22 3,4 C 10,0 C 0,0 km/h (0 Bft)
25.05.2012 21:50 10,7 C 61 % 0,0 l/m 0,3 km/h (0 Bft) N-NO 22 3,5 C 9,8 C 0,0 km/h (0 Bft)
25.05.2012 21:55 10,2 C 63 % 0,0 l/m 0,2 km/h (0 Bft) N-NO 22 3,5 C 9,6 C 0,0 km/h (0 Bft)
25.05.2012 22:00 10,3 C 64 % 0,0 l/m 0,0 km/h (0 Bft) N-NO 22 3,8 C 9,2 C 0,0 km/h (0 Bft)
25.05.2012 22:05 10,5 C 64 % 0,0 l/m 0,0 km/h (0 Bft) NO 45 4,0 C 9,1 C 0,0 km/h (0 Bft)
25.05.2012 22:10 9,8 C 65 % 0,0 l/m 0,3 km/h (0 Bft) N-NO 22 3,5 C 8,9 C 0,0 km/h (0 Bft)
25.05.2012 22:15 9,3 C 66 % 0,0 l/m 0,3 km/h (0 Bft) N-NO 22 3,3 C 8,8 C 0,0 km/h (0 Bft)
25.05.2012 22:20 9,1 C 67 % 0,0 l/m 0,0 km/h (0 Bft) NO 45 3,3 C 8,6 C 1,6 km/h (1 Bft)
25.05.2012 22:25 9,0 C 68 % 0,0 l/m 0,2 km/h (0 Bft) NO 45 3,4 C 8,5 C 0,0 km/h (0 Bft)
25.05.2012 22:30 9,1 C 69 % 0,0 l/m 0,2 km/h (0 Bft) N-NO 22 3,7 C 8,2 C 0,0 km/h (0 Bft)
25.05.2012 22:35 9,1 C 69 % 0,0 l/m 0,2 km/h (0 Bft) N-NO 22 3,7 C 8,0 C 2,1 km/h (1 Bft)
25.05.2012 22:40 8,8 C 70 % 0,0 l/m 0,3 km/h (0 Bft) NO 45 3,6 C 8,0 C 0,0 km/h (0 Bft)
25.05.2012 22:45 8,7 C 70 % 0,0 l/m 0,2 km/h (0 Bft) N 360 3,5 C 7,9 C 0,0 km/h (0 Bft)
25.05.2012 22:50 8,3 C 70 % 0,0 l/m 0,0 km/h (0 Bft) NO 45 3,2 C 7,6 C 0,0 km/h (0 Bft)
25.05.2012 22:55 8,4 C 71 % 0,0 l/m 0,0 km/h (0 Bft) N-NO 22 3,5 C 7,5 C 0,0 km/h (0 Bft)
25.05.2012 23:00 8,5 C 72 % 0,0 l/m 0,2 km/h (0 Bft) NO 45 3,7 C 7,4 C 0,0 km/h (0 Bft)
25.05.2012 23:05 8,5 C 72 % 0,0 l/m 0,3 km/h (0 Bft) NO 45 3,7 C 7,5 C 0,0 km/h (0 Bft)
25.05.2012 23:10 8,2 C 73 % 0,0 l/m 0,3 km/h (0 Bft) O-SO 112 3,7 C 7,4 C 0,0 km/h (0 Bft)
25.05.2012 23:15 7,9 C 73 % 0,0 l/m 0,0 km/h (0 Bft) NO 45 3,4 C 7,3 C 0,0 km/h (0 Bft)
25.05.2012 23:20 7,4 C 73 % 0,0 l/m 0,0 km/h (0 Bft) W-SW 247 2,9 C 6,9 C 0,0 km/h (0 Bft)
25.05.2012 23:25 7,2 C 73 % 0,0 l/m 0,0 km/h (0 Bft) N-NO 22 2,7 C 6,6 C 0,0 km/h (0 Bft)
25.05.2012 23:30 7,5 C 75 % 0,0 l/m 0,0 km/h (0 Bft) W-SW 247 3,4 C 6,6 C 0,0 km/h (0 Bft)
25.05.2012 23:35 7,2 C 75 % 0,0 l/m 0,0 km/h (0 Bft) S-SW 202 3,1 C 6,5 C 0,0 km/h (0 Bft)
25.05.2012 23:40 6,9 C 75 % 0,0 l/m 0,0 km/h (0 Bft) NO 45 2,8 C 6,1 C 0,0 km/h (0 Bft)
25.05.2012 23:45 6,8 C 75 % 0,0 l/m 0,0 km/h (0 Bft) S-SW 202 2,7 C 6,1 C 0,0 km/h (0 Bft)
25.05.2012 23:50 6,5 C 75 % 0,0 l/m 0,0 km/h (0 Bft) SO 135 2,4 C 5,8 C 0,0 km/h (0 Bft)
25.05.2012 23:55 6,4 C 76 % 0,0 l/m 0,0 km/h (0 Bft) SO 135 2,5 C 5,7 C 0,0 km/h (0 Bft)
_ Min-Zeit 23:55 16:30 - 23:55 - - 23:50 23:55 23:55
Minimum _ 6,4 C 33 % - 0,0 km/h (0 Bft) - - 2,4 C 5,7 C 0,0 km/h (0 Bft)
_ Max-Zeit 14:35 07:05 23:55 11:20 - - 08:15 15:20 11:20
Maximum _ 21,4 C 92 % 0,0 l/m 10,5 km/h
W-SW (2 Bft)
- - 12,2 C 22,6 C 21,7 km/h
W-SW (4 Bft)
Durchschnitt _ 14,4 C 61 % #0,0 l/m 3,7 km/h (1 Bft) W-NW - 6,1 C 15,0 C 4,9 km/h (1 Bft)